Terminal Aerodrome Forecast
Issued by NWS

Home | Current Version | Previous Version | Text Only | Print | Product List | Glossary On
Versions: 1 2 3 4 5 6 7 8 9 10 11 12 13 14 15 16 17 18 19 20 21 22 23 24
369
FTUS45 KRIW 141720
TAFPNA
TAF
KPNA 141720Z 1418/1518 28006KT 4SM -SN OVC025
     FM142100 30013KT 3SM -SN OVC015
     FM150600 30011KT 2SM -SN SCT008 OVC013
      AMD NOT SKED=

USA.gov is the U.S. government's official web portal to all federal, state and local government web resources and services.